Time;durP1;ratioP1;P1;durP2;ratioP2;P2;SDS_P1;SDS_P2;PMS_P1;PMS_P2;Temp;Humidity;BMP_temperature;BMP_pressure;BME280_temperature;BME280_humidity;BME280_pressure;Samples;Min_cycle;Max_cycle;Signal;HPM_P1;HPM_P2
2022/01/14 00:03:12;;;;;;;77.03;28.13;;;;;;;-0.34;95.09;103652.28;10497802;28;20070;-77
2022/01/14 00:08:13;;;;;;;93.40;29.88;;;;;;;-0.33;95.32;103655.03;10497354;28;20434;-78
2022/01/14 00:13:37;;;;;;;121.38;37.80;;;;;;;-0.28;95.38;103649.59;10479548;28;20111;-77
2022/01/14 00:18:34;;;;;;;150.88;35.90;;;;;;;-0.27;95.82;103648.88;10496050;28;20081;-78
2022/01/14 00:23:38;;;;;;;111.32;32.05;;;;;;;-0.25;95.37;103645.81;10454915;28;20546;-78
2022/01/14 00:34:01;;;;;;;93.82;33.17;;;;;;;-0.27;95.28;103649.81;10467422;28;20082;-78
2022/01/14 00:39:01;;;;;;;74.03;27.83;;;;;;;-0.27;95.66;103646.28;10497493;28;20044;-78
2022/01/14 00:44:05;;;;;;;163.18;38.08;;;;;;;-0.25;95.48;103638.09;10496575;28;20033;-78
2022/01/14 00:49:06;;;;;;;103.32;30.38;;;;;;;-0.25;95.29;103632.00;10495842;28;20056;-78
2022/01/14 00:54:07;;;;;;;85.80;28.98;;;;;;;-0.32;95.31;103626.00;10479672;28;20126;-78
2022/01/14 00:59:14;;;;;;;104.53;33.03;;;;;;;-0.34;95.39;103616.25;10461668;28;20568;-77
2022/01/14 01:04:29;;;;;;;112.35;31.58;;;;;;;-0.38;95.57;103601.09;10495898;28;20640;-78
2022/01/14 01:09:30;;;;;;;79.68;27.02;;;;;;;-0.35;95.35;103610.16;10495565;28;20491;-78
2022/01/14 01:14:40;;;;;;;101.80;28.63;;;;;;;-0.37;95.24;103601.28;10461483;28;20028;-77
2022/01/14 01:19:40;;;;;;;76.63;29.85;;;;;;;-0.38;95.96;103596.88;10464508;28;20476;-78
2022/01/14 01:24:41;;;;;;;66.05;28.35;;;;;;;-0.35;95.10;103599.84;10478125;28;20040;-78
2022/01/14 01:34:43;;;;;;;86.57;26.40;;;;;;;-0.36;95.81;103574.84;10477082;28;20372;-78
2022/01/14 01:39:44;;;;;;;133.30;30.95;;;;;;;-0.37;94.98;103592.66;10479118;28;20040;-78
2022/01/14 01:44:44;;;;;;;133.98;30.92;;;;;;;-0.45;95.24;103586.47;10495132;28;20047;-78
2022/01/14 01:49:45;;;;;;;86.32;26.85;;;;;;;-0.52;95.33;103582.13;10495871;28;20056;-78
2022/01/14 01:54:45;;;;;;;74.30;22.25;;;;;;;-0.55;94.84;103581.72;10493399;28;20064;-78
2022/01/14 01:59:46;;;;;;;59.90;26.67;;;;;;;-0.55;95.06;103578.22;10494210;28;20127;-78
2022/01/14 02:04:46;;;;;;;53.67;21.50;;;;;;;-0.54;95.55;103585.22;10477152;28;20434;-78
2022/01/14 02:09:47;;;;;;;70.53;24.67;;;;;;;-0.48;95.45;103587.00;10493274;28;20059;-78
2022/01/14 02:15:07;;;;;;;177.70;33.00;;;;;;;-0.53;95.87;103576.78;10495447;28;20416;-78
2022/01/14 02:25:30;;;;;;;52.30;22.85;;;;;;;-0.53;95.96;103587.06;10478660;28;20036;-78
2022/01/14 02:30:39;;;;;;;57.08;21.42;;;;;;;-0.54;95.64;103572.34;10494224;28;20036;-78
2022/01/14 02:35:40;;;;;;;73.95;25.20;;;;;;;-0.62;95.07;103561.03;10494203;28;20127;-78
2022/01/14 02:40:41;;;;;;;76.80;22.33;;;;;;;-0.67;95.63;103562.97;10494098;28;20036;-78
2022/01/14 02:45:50;;;;;;;43.85;23.70;;;;;;;-0.72;95.55;103561.41;10482238;28;20299;-78
2022/01/14 02:56:01;;;;;;;69.53;23.67;;;;;;;-0.66;95.21;103551.03;10502205;28;20039;-78
2022/01/14 03:01:06;;;;;;;85.97;23.98;;;;;;;-0.68;95.68;103542.19;10499454;28;20025;-78
2022/01/14 03:06:07;;;;;;;146.13;24.92;;;;;;;-0.73;95.48;103544.13;10500950;28;20028;-78
2022/01/14 03:11:09;;;;;;;48.22;21.98;;;;;;;-0.77;95.04;103540.22;10499960;28;20028;-78
2022/01/14 03:16:10;;;;;;;38.90;19.88;;;;;;;-0.77;95.60;103534.13;10499049;28;20488;-77
2022/01/14 03:21:11;;;;;;;53.38;22.58;;;;;;;-0.83;95.58;103525.56;10499541;28;20060;-78
2022/01/14 03:26:13;;;;;;;40.47;21.87;;;;;;;-0.78;95.79;103530.66;10500392;28;20071;-78
2022/01/14 03:31:14;;;;;;;71.40;24.30;;;;;;;-0.82;95.63;103527.44;10498983;28;20369;-78
2022/01/14 03:36:14;;;;;;;97.28;26.20;;;;;;;-0.87;94.80;103523.31;10465841;28;20124;-78
2022/01/14 03:41:15;;;;;;;69.32;24.67;;;;;;;-0.89;95.11;103516.31;10465753;28;20687;-78
2022/01/14 03:46:15;;;;;;;40.15;24.05;;;;;;;-0.92;95.64;103523.59;10501345;28;20499;-77
2022/01/14 03:51:15;;;;;;;78.57;27.40;;;;;;;-0.87;95.84;103523.31;10497524;28;20062;-78
2022/01/14 03:56:16;;;;;;;83.30;25.83;;;;;;;-0.84;95.72;103514.38;10482163;28;20056;-78
2022/01/14 04:01:18;;;;;;;89.97;25.23;;;;;;;-0.86;95.34;103520.00;10497041;28;20410;-78
2022/01/14 04:06:18;;;;;;;71.10;26.65;;;;;;;-0.91;95.53;103524.53;10465745;28;20037;-77
2022/01/14 04:11:19;;;;;;;84.68;27.23;;;;;;;-0.93;95.27;103518.25;10496816;28;20500;-78
2022/01/14 04:16:20;;;;;;;120.25;29.20;;;;;;;-1.00;94.99;103506.19;10496146;28;20479;-78
2022/01/14 04:21:21;;;;;;;182.90;34.67;;;;;;;-1.08;95.32;103510.31;10497238;28;20032;-78
2022/01/14 04:26:21;;;;;;;152.30;34.33;;;;;;;-1.14;95.72;103508.53;10497653;28;20036;-78
2022/01/14 04:31:22;;;;;;;119.25;27.13;;;;;;;-1.21;95.98;103505.13;10495951;28;20052;-77
2022/01/14 04:36:22;;;;;;;51.25;22.80;;;;;;;-1.13;95.01;103512.94;10495489;28;20087;-78
2022/01/14 04:41:23;;;;;;;98.60;30.15;;;;;;;-1.18;95.53;103507.19;10497199;28;20043;-78
2022/01/14 04:46:49;;;;;;;122.25;25.95;;;;;;;-1.25;95.71;103505.41;10480353;28;20129;-78
2022/01/14 04:51:50;;;;;;;107.15;26.10;;;;;;;-1.29;95.28;103497.09;10495083;28;20032;-78
2022/01/14 04:56:51;;;;;;;126.30;34.05;;;;;;;-1.29;95.00;103504.78;10480248;28;20491;-77
2022/01/14 05:01:51;;;;;;;135.73;31.90;;;;;;;-1.28;95.75;103501.50;10477427;28;20484;-77
2022/01/14 05:06:58;;;;;;;154.00;33.67;;;;;;;-1.29;94.95;103492.84;10477977;28;20024;-78
2022/01/14 05:12:06;;;;;;;103.28;28.20;;;;;;;-1.26;95.29;103477.84;10493929;28;20033;-77
2022/01/14 05:17:06;;;;;;;82.80;29.30;;;;;;;-1.29;95.50;103486.81;10495369;28;20404;-78
2022/01/14 05:22:07;;;;;;;135.57;33.22;;;;;;;-1.29;95.59;103480.00;10494275;28;20059;-79
2022/01/14 05:27:07;;;;;;;75.85;29.20;;;;;;;-1.23;95.70;103482.50;10495186;28;20682;-78
2022/01/14 05:32:12;;;;;;;138.95;37.60;;;;;;;-1.21;95.72;103476.84;10453345;28;20110;-78
2022/01/14 05:37:12;;;;;;;73.10;29.02;;;;;;;-1.23;95.77;103488.56;10479118;28;20060;-78
2022/01/14 05:42:13;;;;;;;64.45;25.42;;;;;;;-1.18;95.20;103484.06;10494770;28;20029;-78
2022/01/14 05:47:13;;;;;;;101.15;31.58;;;;;;;-1.25;96.04;103481.38;10488911;28;20032;-78
2022/01/14 05:52:14;;;;;;;101.25;30.50;;;;;;;-1.28;95.72;103487.00;10492013;28;20067;-79
2022/01/14 05:57:14;;;;;;;118.53;31.58;;;;;;;-1.28;94.99;103496.38;10491646;28;20173;-79
2022/01/14 06:02:15;;;;;;;104.15;35.20;;;;;;;-1.32;95.04;103495.00;10493059;28;20428;-77
2022/01/14 06:07:16;;;;;;;79.47;29.63;;;;;;;-1.31;95.34;103495.94;10492052;28;20162;-79
2022/01/14 06:12:16;;;;;;;87.90;29.50;;;;;;;-1.29;95.37;103481.66;10490876;28;20048;-79
2022/01/14 06:17:17;;;;;;;101.82;36.22;;;;;;;-1.30;95.04;103473.00;10491785;28;20548;-78
2022/01/14 06:22:17;;;;;;;48.67;26.92;;;;;;;-1.26;95.15;103470.16;10499540;28;20059;-79
2022/01/14 06:27:18;;;;;;;96.13;34.38;;;;;;;-1.22;95.10;103466.38;10469717;28;20388;-79
2022/01/14 06:32:18;;;;;;;97.85;35.08;;;;;;;-1.19;95.94;103472.84;10499175;28;20476;-79
2022/01/14 06:37:19;;;;;;;112.38;38.30;;;;;;;-1.13;95.23;103470.19;10498839;28;20171;-78
2022/01/14 06:42:19;;;;;;;96.78;40.58;;;;;;;-1.17;95.90;103479.84;10502103;28;20036;-79
2022/01/14 06:47:21;;;;;;;141.98;46.20;;;;;;;-1.14;95.42;103478.63;10481984;28;20051;-79
2022/01/14 06:52:22;;;;;;;92.15;40.92;;;;;;;-1.15;95.70;103473.25;10490726;28;20158;-78
2022/01/14 06:57:24;;;;;;;126.47;46.65;;;;;;;-1.08;96.06;103478.53;10496798;28;20051;-77
2022/01/14 07:02:24;;;;;;;;;;;;;;;-1.00;95.13;103475.34;10484551;28;20044;-76
2022/01/14 07:07:25;;;;;;;132.95;50.92;;;;;;;-1.02;96.07;103465.59;10520361;28;19923;-75
2022/01/14 07:12:27;;;;;;;118.25;49.17;;;;;;;-0.93;95.92;103466.84;10509412;28;20052;-75
2022/01/14 07:17:27;;;;;;;105.43;53.75;;;;;;;-0.90;96.09;103480.13;10506091;28;20123;-78
2022/01/14 07:22:28;;;;;;;119.38;54.53;;;;;;;-0.86;95.36;103459.25;10502075;28;20031;-78
2022/01/14 07:27:28;;;;;;;134.40;57.78;;;;;;;-0.77;95.56;103463.06;10501274;28;20051;-78
2022/01/14 07:32:29;;;;;;;123.57;60.72;;;;;;;-0.70;95.72;103466.47;10489992;28;20028;-79
2022/01/14 07:37:30;;;;;;;103.20;49.38;;;;;;;-0.67;95.48;103465.22;10515920;28;20097;-78
2022/01/14 07:42:30;;;;;;;145.57;61.47;;;;;;;-0.60;95.49;103465.31;10499511;28;20158;-78
2022/01/14 07:47:31;;;;;;;131.85;59.00;;;;;;;-0.52;96.10;103479.22;10497454;28;20111;-78
2022/01/14 07:52:31;;;;;;;145.90;64.70;;;;;;;-0.47;95.72;103475.63;10504657;28;20037;-78
2022/01/14 07:57:32;;;;;;;131.52;62.78;;;;;;;-0.39;95.99;103481.78;10478635;28;20110;-78
2022/01/14 08:02:32;;;;;;;113.32;54.67;;;;;;;-0.31;95.78;103483.72;10492943;28;20020;-78
2022/01/14 08:07:34;;;;;;;184.88;75.53;;;;;;;-0.25;96.11;103491.34;10478244;28;20061;-77
2022/01/14 08:12:36;;;;;;;166.13;71.43;;;;;;;-0.13;95.69;103493.72;10488959;28;20032;-77
2022/01/14 08:17:36;;;;;;;182.77;77.13;;;;;;;-0.03;95.66;103481.34;10518614;28;20394;-78
2022/01/14 08:22:37;;;;;;;168.32;70.00;;;;;;;0.06;95.83;103472.25;10483324;28;20034;-77
2022/01/14 08:27:37;;;;;;;110.53;61.22;;;;;;;0.10;95.61;103461.63;10515297;28;20040;-77
2022/01/14 08:32:38;;;;;;;120.47;59.90;;;;;;;0.17;95.81;103447.00;10485408;28;20059;-78
2022/01/14 08:37:39;;;;;;;163.52;71.18;;;;;;;0.19;95.91;103441.28;10502990;28;20140;-78
2022/01/14 08:42:39;;;;;;;184.38;73.93;;;;;;;0.28;95.91;103439.00;10514081;28;20471;-78
2022/01/14 08:47:40;;;;;;;173.73;72.28;;;;;;;0.28;95.58;103437.34;10504675;28;20122;-77
2022/01/14 08:52:40;;;;;;;171.23;72.43;;;;;;;0.36;95.67;103471.84;10526039;28;20123;-78
2022/01/14 08:57:42;;;;;;;150.05;63.25;;;;;;;0.53;95.72;103468.88;10502054;28;20028;-77
2022/01/14 09:02:43;;;;;;;144.95;61.45;;;;;;;0.56;95.83;103479.59;10494439;28;20024;-78
2022/01/14 09:07:43;;;;;;;129.68;57.70;;;;;;;0.72;96.00;103469.63;10505054;28;20479;-77
2022/01/14 09:12:44;;;;;;;126.53;64.70;;;;;;;0.79;95.37;103458.44;10521718;28;20127;-77
2022/01/14 09:17:44;;;;;;;122.93;56.08;;;;;;;0.93;95.64;103456.72;10494438;28;20028;-78
2022/01/14 09:22:49;;;;;;;113.32;57.33;;;;;;;1.01;95.68;103466.34;10500862;28;20039;-77
2022/01/14 09:27:52;;;;;;;106.68;56.75;;;;;;;1.13;95.64;103443.78;10519150;28;20024;-78
2022/01/14 09:32:52;;;;;;;169.38;77.35;;;;;;;1.26;95.10;103454.00;10494635;28;20020;-78
2022/01/14 09:37:53;;;;;;;101.03;51.95;;;;;;;1.32;94.69;103449.63;10512092;28;20500;-78
2022/01/14 09:43:00;;;;;;;133.23;55.50;;;;;;;1.35;94.49;103446.53;10509821;28;20443;-77
2022/01/14 09:48:00;;;;;;;101.15;49.75;;;;;;;1.42;94.29;103459.47;10506959;28;20043;-78
2022/01/14 09:53:01;;;;;;;87.95;49.78;;;;;;;1.49;93.80;103467.25;10473919;28;20531;-77
2022/01/14 09:58:01;;;;;;;113.95;62.10;;;;;;;1.78;94.01;103464.81;10523247;28;20464;-78
2022/01/14 10:03:20;;;;;;;110.93;50.22;;;;;;;1.96;93.55;103479.09;10518140;28;20108;-78
2022/01/14 10:08:26;;;;;;;92.93;43.78;;;;;;;1.99;93.18;103466.56;10493358;28;20095;-78
2022/01/14 10:13:30;;;;;;;83.78;41.58;;;;;;;2.23;92.32;103485.81;10503178;28;20028;-81
2022/01/14 10:18:33;;;;;;;94.50;39.38;;;;;;;2.23;92.21;103483.25;10465879;28;20036;-82
2022/01/14 10:23:51;;;;;;;56.55;33.38;;;;;;;2.44;89.81;103497.91;10468994;28;20502;-80
2022/01/14 10:29:05;;;;;;;66.00;35.33;;;;;;;2.53;89.99;103500.69;10520915;28;20043;-81
2022/01/14 10:34:12;;;;;;;66.20;33.25;;;;;;;2.52;89.49;103503.09;10505979;28;20101;-79
2022/01/14 10:39:26;;;;;;;61.03;29.65;;;;;;;2.55;88.31;103506.06;10525500;28;20567;-79
2022/01/14 10:44:29;;;;;;;70.97;34.47;;;;;;;2.32;89.19;103502.47;10507469;28;20036;-79
2022/01/14 10:49:33;;;;;;;67.13;30.17;;;;;;;2.38;88.94;103499.72;10523608;28;20479;-80
2022/01/14 10:54:40;;;;;;;56.38;33.20;;;;;;;2.37;88.75;103482.38;10524930;28;20028;-80
2022/01/14 10:59:42;;;;;;;56.55;31.98;;;;;;;2.17;89.13;103474.72;10518672;27;20040;-78
2022/01/14 11:05:00;;;;;;;70.25;36.30;;;;;;;2.20;89.54;103464.78;10521687;28;20036;-78
2022/01/14 11:10:00;;;;;;;49.10;30.70;;;;;;;2.24;89.78;103458.34;10496994;28;20024;-79
2022/01/14 11:15:01;;;;;;;78.10;35.40;;;;;;;2.19;90.25;103458.69;10486103;28;20016;-81
2022/01/14 11:20:04;;;;;;;67.20;34.05;;;;;;;2.16;89.98;103453.16;10504087;28;20452;-77
2022/01/14 11:25:04;;;;;;;65.78;34.15;;;;;;;2.22;90.53;103452.97;10520836;28;20017;-77
2022/01/14 11:30:12;;;;;;;67.95;34.85;;;;;;;2.15;91.09;103447.78;10505879;28;20534;-78
2022/01/14 11:35:19;;;;;;;71.82;35.67;;;;;;;2.15;91.13;103446.13;10513389;28;20045;-78
2022/01/14 11:40:20;;;;;;;75.88;39.15;;;;;;;2.14;91.55;103453.69;10459015;28;20086;-78
2022/01/14 11:45:43;;;;;;;69.10;39.88;;;;;;;2.18;91.50;103443.00;10523647;28;20085;-78
2022/01/14 11:50:46;;;;;;;84.82;42.05;;;;;;;2.32;91.96;103432.69;10476923;28;20032;-79
2022/01/14 11:55:49;;;;;;;79.35;38.95;;;;;;;2.40;92.09;103443.97;10480611;28;20028;-81
2022/01/14 12:00:53;;;;;;;97.93;46.47;;;;;;;2.53;91.30;103427.38;10482634;28;20036;-81
2022/01/14 12:06:07;;;;;;;69.05;39.33;;;;;;;2.52;91.19;103433.28;10499473;28;20475;-80
2022/01/14 12:11:17;;;;;;;;;;;;;;;;;;;;;
2022/01/14 12:16:39;;;;;;;80.75;43.65;;;;;;;2.55;91.71;103425.91;10494044;28;20056;-81
2022/01/14 12:21:40;;;;;;;83.78;45.25;;;;;;;2.58;91.38;103410.75;10458812;28;20414;-82
2022/01/14 12:26:52;;;;;;;86.95;42.25;;;;;;;2.64;91.61;103398.56;10491759;28;20086;-81
2022/01/14 12:32:29;;;;;;;80.22;45.47;;;;;;;2.84;91.07;103400.03;10494390;28;20128;-81
2022/01/14 12:37:34;;;;;;;93.20;46.20;;;;;;;2.97;91.48;103397.22;10476214;28;20055;-81
2022/01/14 12:42:35;;;;;;;92.90;43.67;;;;;;;2.94;90.46;103398.72;10483715;28;20025;-78
2022/01/14 12:47:40;;;;;;;86.03;44.63;;;;;;;2.91;90.35;103403.53;10496127;28;20472;-80
2022/01/14 12:52:48;;;;;;;87.13;44.88;;;;;;;3.13;89.71;103402.59;10465674;28;20442;-80
2022/01/14 12:57:55;;;;;;;77.72;42.15;;;;;;;3.14;89.49;103413.09;10514601;27;20395;-81
2022/01/14 13:02:56;;;;;;;79.43;41.42;;;;;;;3.20;88.92;103418.09;10481311;28;20055;-80
2022/01/14 13:07:57;;;;;;;76.13;41.42;;;;;;;3.15;88.97;103404.59;10481109;28;20051;-78
2022/01/14 13:12:58;;;;;;;78.28;43.15;;;;;;;3.05;87.90;103396.47;10490834;28;20074;-79
2022/01/14 13:18:07;;;;;;;90.57;45.47;;;;;;;2.96;89.29;103387.63;10520022;28;20125;-75
2022/01/14 13:23:08;;;;;;;77.68;43.03;;;;;;;3.09;89.08;103396.09;10513955;28;20032;-76
2022/01/14 13:28:08;;;;;;;74.88;42.45;;;;;;;3.16;88.75;103382.25;10533801;28;20067;-80
2022/01/14 13:33:10;;;;;;;69.25;38.42;;;;;;;3.19;88.83;103393.88;10495712;28;20067;-80
2022/01/14 13:38:14;;;;;;;73.32;39.40;;;;;;;3.13;88.96;103375.03;10462844;28;20057;-79
2022/01/14 13:43:20;;;;;;;90.00;42.60;;;;;;;3.09;89.50;103375.41;10487411;28;20123;-81
2022/01/14 13:48:24;;;;;;;70.35;39.38;;;;;;;2.98;89.08;103378.38;10462178;28;20385;-81
2022/01/14 13:53:32;;;;;;;79.65;41.00;;;;;;;2.88;89.60;103381.56;10451433;28;20029;-81
2022/01/14 13:58:33;;;;;;;67.38;42.85;;;;;;;2.79;89.63;103377.13;10453392;28;20495;-81
2022/01/14 14:04:04;;;;;;;76.82;44.55;;;;;;;2.72;89.69;103371.03;10453321;28;20025;-80
2022/01/14 14:20:07;;;;;;;75.65;43.25;;;;;;;2.62;91.05;103361.25;10490671;28;20024;-78
2022/01/14 14:25:14;;;;;;;75.50;41.45;;;;;;;2.66;91.03;103359.94;10507269;28;20179;-78
2022/01/14 14:30:15;;;;;;;75.57;42.05;;;;;;;2.79;91.16;103347.75;10502752;28;20066;-78
2022/01/14 14:35:17;;;;;;;74.45;40.03;;;;;;;2.75;90.89;103350.69;10491217;28;20041;-78
2022/01/14 14:40:23;;;;;;;75.22;44.80;;;;;;;2.74;90.95;103336.88;10476481;28;20036;-78
2022/01/14 14:45:24;;;;;;;81.47;43.08;;;;;;;2.73;91.02;103341.84;10498501;28;20102;-81
2022/01/14 14:50:28;;;;;;;72.20;43.92;;;;;;;2.73;91.12;103354.78;10451314;28;20090;-80
2022/01/14 14:55:32;;;;;;;72.88;41.85;;;;;;;2.72;91.10;103350.34;10482993;28;20158;-81
2022/01/14 15:00:32;;;;;;;81.13;44.08;;;;;;;2.65;91.14;103348.69;10482541;28;20031;-79
2022/01/14 15:05:33;;;;;;;83.72;51.28;;;;;;;2.61;91.88;103338.72;10520635;28;20062;-80
2022/01/14 15:10:34;;;;;;;91.07;48.72;;;;;;;2.54;92.19;103339.63;10521790;28;20113;-81
2022/01/14 15:20:44;;;;;;;96.97;49.25;;;;;;;2.52;92.07;103346.28;10523153;28;20047;-81
2022/01/14 15:25:48;;;;;;;107.63;48.38;;;;;;;2.46;92.52;103348.13;10504347;28;20518;-80
2022/01/14 15:30:49;;;;;;;85.38;50.22;;;;;;;2.59;92.17;103359.22;10518087;28;20043;-81
2022/01/14 15:35:50;;;;;;;90.43;47.40;;;;;;;2.46;92.01;103353.31;10519325;28;20048;-82
2022/01/14 15:41:02;;;;;;;81.40;49.58;;;;;;;2.49;91.96;103357.19;10501095;28;20169;-79
2022/01/14 15:46:04;;;;;;;84.65;49.50;;;;;;;2.39;92.21;103338.75;10507332;28;20405;-81
2022/01/14 15:51:05;;;;;;;77.87;42.60;;;;;;;2.36;92.29;103346.13;10513972;28;20032;-80
2022/01/14 15:56:05;;;;;;;89.63;49.27;;;;;;;2.34;92.06;103343.34;10490597;28;20115;-80
2022/01/14 16:01:07;;;;;;;79.45;47.88;;;;;;;2.27;92.17;103342.44;10503166;28;20139;-81
2022/01/14 16:06:08;;;;;;;89.38;47.85;;;;;;;2.29;92.54;103336.69;10500055;28;20438;-78
2022/01/14 16:11:08;;;;;;;74.43;45.47;;;;;;;2.40;92.62;103345.75;10495633;28;20078;-78
2022/01/14 16:16:09;;;;;;;89.90;47.80;;;;;;;2.25;92.52;103342.22;10495832;28;20507;-77
2022/01/14 16:21:11;;;;;;;86.75;50.10;;;;;;;2.19;92.61;103337.25;10507298;28;20020;-77
2022/01/14 16:26:11;;;;;;;94.88;48.28;;;;;;;2.20;92.91;103341.69;10500853;28;20032;-79
2022/01/14 16:31:12;;;;;;;86.75;48.55;;;;;;;2.16;93.06;103347.22;10508841;28;20051;-78
2022/01/14 16:36:12;;;;;;;89.78;49.00;;;;;;;2.12;93.04;103349.22;10523381;28;20043;-77
2022/01/14 16:41:13;;;;;;;98.10;53.72;;;;;;;2.07;93.17;103346.09;10519439;28;20028;-78
2022/01/14 16:46:14;;;;;;;86.65;49.35;;;;;;;2.07;93.34;103334.81;10502995;28;20549;-76
2022/01/14 16:51:15;;;;;;;93.13;51.93;;;;;;;2.05;93.42;103334.66;10507800;28;20024;-79
2022/01/14 16:56:15;;;;;;;100.07;52.75;;;;;;;2.05;93.51;103327.81;10484757;28;20029;-80
2022/01/14 17:01:16;;;;;;;94.20;49.63;;;;;;;2.02;93.46;103324.84;10496132;28;20432;-81
2022/01/14 17:06:16;;;;;;;96.90;52.20;;;;;;;2.03;93.48;103339.63;10499613;28;20035;-80
2022/01/14 17:11:17;;;;;;;80.13;50.03;;;;;;;2.10;93.53;103323.22;10503344;28;20062;-80
2022/01/14 17:16:17;;;;;;;106.15;54.88;;;;;;;2.04;93.39;103325.97;10497530;28;20060;-82
2022/01/14 17:21:18;;;;;;;118.63;64.40;;;;;;;2.09;93.72;103320.44;10486588;28;20031;-83
2022/01/14 17:26:18;;;;;;;92.30;52.15;;;;;;;2.01;93.73;103315.25;10459687;28;20056;-78
2022/01/14 17:31:20;;;;;;;110.15;61.88;;;;;;;2.10;93.88;103312.88;10493545;28;20510;-79
2022/01/14 17:36:20;;;;;;;100.23;54.43;;;;;;;2.04;93.63;103309.56;10484581;28;20176;-79
2022/01/14 17:41:21;;;;;;;102.68;58.95;;;;;;;2.00;93.46;103307.34;10511507;28;20593;-80
2022/01/14 17:46:22;;;;;;;96.95;57.05;;;;;;;1.98;93.64;103304.56;10476170;28;20025;-79
2022/01/14 17:51:24;;;;;;;110.40;67.88;;;;;;;1.93;93.43;103308.22;10495176;28;20055;-80
2022/01/14 17:56:28;;;;;;;106.82;59.42;;;;;;;1.92;93.88;103314.13;10491180;28;20448;-80
2022/01/14 18:01:29;;;;;;;115.65;64.55;;;;;;;1.91;93.56;103312.28;10507912;28;20039;-79
2022/01/14 18:06:30;;;;;;;115.18;62.15;;;;;;;1.88;93.71;103306.75;10489984;28;20119;-80
2022/01/14 18:11:33;;;;;;;112.30;62.85;;;;;;;1.88;94.09;103309.34;10493334;28;20506;-78
2022/01/14 18:16:34;;;;;;;117.97;68.15;;;;;;;1.89;93.98;103291.47;10449179;28;20037;-78
2022/01/14 18:21:34;;;;;;;94.63;53.33;;;;;;;1.94;93.99;103293.69;10483371;28;20036;-80
2022/01/14 18:26:35;;;;;;;100.05;58.45;;;;;;;1.92;93.79;103296.06;10468820;28;20036;-79
2022/01/14 18:31:39;;;;;;;107.80;60.50;;;;;;;1.92;93.37;103298.63;10485356;28;20052;-78
2022/01/14 18:36:39;;;;;;;109.80;59.75;;;;;;;1.96;93.43;103292.19;10500584;28;20051;-78
2022/01/14 18:41:40;;;;;;;98.13;54.65;;;;;;;1.98;93.71;103288.16;10483801;28;20043;-78
2022/01/14 18:46:41;;;;;;;93.00;49.10;;;;;;;1.94;92.92;103284.25;10501188;28;20376;-76
2022/01/14 18:51:45;;;;;;;70.93;42.03;;;;;;;2.00;93.35;103287.56;10484025;28;20487;-76
2022/01/14 18:56:45;;;;;;;102.03;57.70;;;;;;;1.92;93.28;103282.22;10497891;28;20028;-79
2022/01/14 19:01:46;;;;;;;96.57;61.10;;;;;;;1.90;93.09;103285.56;10486273;28;20032;-78
2022/01/14 19:06:46;;;;;;;112.32;65.57;;;;;;;1.87;93.10;103273.91;10480954;28;20063;-78
2022/01/14 19:11:47;;;;;;;86.72;52.67;;;;;;;1.93;93.18;103266.91;10512737;28;20119;-79
2022/01/14 19:16:47;;;;;;;100.85;53.08;;;;;;;1.92;92.92;103267.66;10497693;28;20166;-79
2022/01/14 19:21:48;;;;;;;95.82;52.22;;;;;;;1.94;92.67;103261.00;10482346;28;20016;-79
2022/01/14 19:26:49;;;;;;;99.60;46.88;;;;;;;1.88;92.01;103258.63;10480547;28;20067;-80
2022/01/14 19:31:50;;;;;;;90.75;49.17;;;;;;;1.88;92.20;103257.69;10481562;28;20104;-79
2022/01/14 19:36:50;;;;;;;92.90;56.60;;;;;;;1.90;91.89;103263.94;10499484;28;20552;-78
2022/01/14 19:41:51;;;;;;;93.10;54.05;;;;;;;1.86;91.92;103257.50;10498518;28;20399;-81
2022/01/14 19:46:51;;;;;;;92.28;53.78;;;;;;;1.86;92.40;103253.97;10457471;28;20033;-81
2022/01/14 19:51:52;;;;;;;98.03;53.35;;;;;;;1.83;92.04;103259.72;10492007;28;20471;-77
2022/01/14 19:56:53;;;;;;;110.35;58.15;;;;;;;1.85;92.06;103253.09;10508088;28;20029;-79
2022/01/14 20:01:53;;;;;;;94.28;56.20;;;;;;;1.84;92.06;103248.66;10492794;28;20052;-80
2022/01/14 20:06:54;;;;;;;109.55;57.03;;;;;;;1.79;91.88;103236.84;10496276;28;20106;-80
2022/01/14 20:11:54;;;;;;;108.88;58.25;;;;;;;1.80;92.15;103236.09;10481162;28;20127;-78
2022/01/14 20:16:55;;;;;;;97.47;53.83;;;;;;;1.80;91.91;103236.09;10495172;28;20060;-83
2022/01/14 20:21:55;;;;;;;108.22;58.75;;;;;;;1.77;92.14;103228.00;10517715;28;20067;-81
2022/01/14 20:26:56;;;;;;;126.60;63.90;;;;;;;1.73;91.88;103210.28;10462729;28;20127;-81
2022/01/14 20:31:56;;;;;;;110.97;58.05;;;;;;;1.70;92.28;103210.81;10495977;28;20495;-79
2022/01/14 20:36:57;;;;;;;124.60;60.92;;;;;;;1.69;92.14;103216.72;10496423;28;20127;-79
2022/01/14 20:42:03;;;;;;;114.40;60.22;;;;;;;1.70;92.48;103208.22;10513143;28;20078;-80
2022/01/14 20:47:07;;;;;;;123.97;65.50;;;;;;;1.73;92.56;103203.44;10491718;28;20098;-80
2022/01/14 20:52:09;;;;;;;117.40;63.83;;;;;;;1.71;92.41;103206.59;10479672;28;20067;-78
2022/01/14 20:57:12;;;;;;;135.43;68.17;;;;;;;1.69;92.29;103198.63;10494016;28;20024;-80
2022/01/14 21:02:13;;;;;;;121.70;58.65;;;;;;;1.72;92.39;103206.75;10494757;28;20033;-80
2022/01/14 21:07:13;;;;;;;119.10;63.22;;;;;;;1.67;92.21;103206.94;10495708;28;20158;-89
2022/01/14 21:12:14;;;;;;;157.52;66.05;;;;;;;1.70;92.19;103207.31;10478695;28;20464;-78
2022/01/14 21:17:14;;;;;;;128.82;59.60;;;;;;;1.70;92.34;103210.81;10490855;28;20029;-81
2022/01/14 21:22:15;;;;;;;130.10;63.13;;;;;;;1.71;92.28;103210.06;10516072;28;20916;-79
2022/01/14 21:27:16;;;;;;;125.93;62.22;;;;;;;1.69;92.29;103208.06;10494814;28;20028;-83
2022/01/14 21:32:16;;;;;;;113.65;58.08;;;;;;;1.68;91.93;103214.88;10493889;28;20025;-81
2022/01/14 21:37:17;;;;;;;92.60;54.58;;;;;;;1.63;91.91;103209.91;10499716;28;20037;-78
2022/01/14 21:42:17;;;;;;;117.32;62.65;;;;;;;1.52;92.31;103201.78;10508980;28;20196;-78
2022/01/14 21:47:18;;;;;;;102.00;51.38;;;;;;;1.45;92.12;103200.09;10490977;28;20435;-77
2022/01/14 21:52:18;;;;;;;103.28;54.95;;;;;;;1.45;92.04;103197.50;10493747;28;20024;-78
2022/01/14 21:57:19;;;;;;;95.57;51.65;;;;;;;1.43;92.47;103186.06;10494279;28;20063;-78
2022/01/14 22:02:19;;;;;;;110.75;57.63;;;;;;;1.40;92.12;103184.78;10493503;28;20114;-78
2022/01/14 22:07:20;;;;;;;118.70;59.70;;;;;;;1.42;92.29;103183.31;10494616;28;20039;-78
2022/01/14 22:12:23;;;;;;;107.38;59.45;;;;;;;1.37;92.02;103187.00;10493542;28;20056;-78
2022/01/14 22:17:24;;;;;;;110.15;61.35;;;;;;;1.34;92.60;103178.88;10493397;28;20037;-78
2022/01/14 22:22:24;;;;;;;119.63;60.30;;;;;;;1.33;92.21;103177.94;10492272;28;20499;-78
2022/01/14 22:27:25;;;;;;;107.85;55.80;;;;;;;1.27;92.60;103182.34;10492982;28;20128;-78
2022/01/14 22:32:25;;;;;;;113.38;57.67;;;;;;;1.29;92.58;103170.56;10495398;28;20070;-78
2022/01/14 22:37:26;;;;;;;100.80;54.47;;;;;;;1.34;91.84;103176.31;10493949;28;20054;-78
2022/01/14 22:42:27;;;;;;;94.80;55.03;;;;;;;1.38;91.97;103165.63;10493932;28;20111;-78
2022/01/14 22:47:28;;;;;;;94.00;51.20;;;;;;;1.26;92.01;103165.97;10494639;28;20062;-78
2022/01/14 22:52:28;;;;;;;109.88;55.08;;;;;;;1.20;91.76;103165.22;10494279;28;20048;-78
2022/01/14 22:57:29;;;;;;;95.88;55.88;;;;;;;1.18;92.15;103161.53;10475856;28;20087;-78
2022/01/14 23:02:29;;;;;;;97.25;53.38;;;;;;;1.21;92.41;103156.75;10496232;28;20051;-78
2022/01/14 23:07:30;;;;;;;105.00;55.03;;;;;;;1.17;92.45;103145.13;10498916;28;20067;-78
2022/01/14 23:12:31;;;;;;;113.90;60.95;;;;;;;1.14;91.96;103138.66;10499279;28;20071;-78
2022/01/14 23:17:32;;;;;;;112.00;59.45;;;;;;;1.22;92.34;103145.69;10499916;28;20044;-78
2022/01/14 23:22:33;;;;;;;103.18;56.58;;;;;;;1.06;92.07;103141.97;10498690;28;20028;-78